Duque Bacelar, Brazil
Current Conditions -  °F | °C
As of 10:00 PM on Saturday 25 Oct 2014 (Local Time) from SBTE Reporting Station
Clear Clear  
Wind Chill: 84°   Ceiling: Unl
Heat Index: 84°   Visibility: 6mi
Dew Point: 61°   Wind: 0mph
Humidity: 45%   Direction: NA
Pressure: 29.8"   Gusts: NA
Location:  4.29°S, 42.99°W
Report Text: SBTE 260100Z 00000KT CAVOK 29/16 Q1009
Loading
Personal Weather Stations






























Interactive Weather Map
Tropical Storm Tracking
New forecast layout! Learn more

10-Day Weather Forecast

Advertisements
Track Severe Weather on mobile